Time;durP1;ratioP1;P1;durP2;ratioP2;P2;SDS_P1;SDS_P2;PMS_P1;PMS_P2;Temp;Humidity;BMP_temperature;BMP_pressure;BME280_temperature;BME280_humidity;BME280_pressure;Samples;Min_cycle;Max_cycle;Signal;HPM_P1;HPM_P2
2022/06/01 00:01:51;;;;;;;8.25;3.58;;;10.10;89.90;;;;;;5087199;28;20039;-73
2022/06/01 00:04:18;;;;;;;4.55;3.10;;;10.00;89.90;;;;;;5088438;28;20028;-73
2022/06/01 00:06:43;;;;;;;7.45;3.38;;;10.00;89.80;;;;;;5088779;28;20501;-73
2022/06/01 00:09:09;;;;;;;4.50;2.78;;;9.90;89.80;;;;;;5090987;28;20036;-73
2022/06/01 00:11:34;;;;;;;6.97;3.53;;;9.80;89.80;;;;;;5090693;28;20032;-73
2022/06/01 00:14:00;;;;;;;5.05;2.95;;;9.70;89.80;;;;;;5088346;28;20032;-73
2022/06/01 00:16:25;;;;;;;5.07;3.30;;;9.60;90.10;;;;;;5088010;28;20027;-73
2022/06/01 00:18:51;;;;;;;6.40;2.83;;;9.50;90.40;;;;;;5085924;28;20588;-73
2022/06/01 00:21:16;;;;;;;5.35;3.55;;;9.50;90.80;;;;;;5088635;28;20048;-73
2022/06/01 00:23:42;;;;;;;7.60;3.38;;;9.40;91.20;;;;;;5088097;28;20039;-73
2022/06/01 00:26:07;;;;;;;6.82;3.30;;;9.30;91.30;;;;;;5088089;28;20043;-73
2022/06/01 00:28:34;;;;;;;4.72;3.50;;;9.30;91.50;;;;;;5089703;28;20032;-73
2022/06/01 00:30:59;;;;;;;6.38;3.17;;;9.20;91.50;;;;;;5088879;28;20024;-73
2022/06/01 00:33:25;;;;;;;5.60;3.63;;;9.20;91.60;;;;;;5088930;28;20111;-73
2022/06/01 00:35:51;;;;;;;5.40;3.65;;;9.10;91.90;;;;;;5087522;28;20124;-73
2022/06/01 00:38:17;;;;;;;5.60;3.50;;;9.00;91.90;;;;;;5082402;28;20040;-73
2022/06/01 00:40:42;;;;;;;5.65;3.50;;;9.00;91.70;;;;;;5087369;28;20529;-73
2022/06/01 00:43:24;;;;;;;5.88;3.60;;;8.90;91.90;;;;;;5088710;28;20743;-73
2022/06/01 00:45:50;;;;;;;8.68;3.70;;;8.90;92.00;;;;;;5086786;28;20049;-73
2022/06/01 00:48:15;;;;;;;8.20;3.90;;;8.90;92.30;;;;;;5087542;28;20039;-73
2022/06/01 00:50:42;;;;;;;5.72;3.90;;;8.80;92.40;;;;;;5086908;28;20410;-73
2022/06/01 00:53:16;;;;;;;6.22;4.30;;;8.70;92.50;;;;;;5088770;28;21300;-73
2022/06/01 00:55:45;;;;;;;6.97;4.07;;;8.70;92.60;;;;;;5085738;28;20123;-73
2022/06/01 00:58:16;;;;;;;7.40;3.67;;;8.60;92.70;;;;;;5091840;28;20022;-73
2022/06/01 01:00:42;;;;;;;7.68;4.70;;;8.60;92.80;;;;;;5089774;28;20514;-73
2022/06/01 01:03:10;;;;;;;8.25;4.43;;;8.60;92.90;;;;;;5094507;28;20132;-73
2022/06/01 01:05:40;;;;;;;6.78;4.18;;;8.50;93.00;;;;;;5092879;28;20040;-73
2022/06/01 01:08:06;;;;;;;5.75;3.85;;;8.50;93.00;;;;;;5094743;28;20016;-73
2022/06/01 01:10:33;;;;;;;5.03;3.60;;;8.50;93.00;;;;;;5095376;28;20051;-73
2022/06/01 01:13:04;;;;;;;5.10;3.42;;;8.40;92.80;;;;;;5092547;28;20016;-73
2022/06/01 01:15:40;;;;;;;5.20;3.92;;;8.40;93.00;;;;;;5088215;28;20031;-73
2022/06/01 01:18:11;;;;;;;5.13;3.65;;;8.40;93.00;;;;;;5091351;28;20031;-73
2022/06/01 01:20:47;;;;;;;5.20;3.70;;;8.40;92.90;;;;;;5077963;28;20051;-73
2022/06/01 01:23:31;;;;;;;5.80;4.43;;;8.40;92.90;;;;;;5083758;28;20440;-73
2022/06/01 01:25:57;;;;;;;6.25;4.20;;;8.50;93.30;;;;;;5085619;28;20094;-73
2022/06/01 01:28:22;;;;;;;7.90;4.70;;;8.50;93.60;;;;;;5090177;28;20490;-73
2022/06/01 01:31:06;;;;;;;5.68;4.18;;;8.50;93.60;;;;;;5090410;28;20382;-73
2022/06/01 01:33:32;;;;;;;9.20;4.28;;;8.50;93.60;;;;;;5090269;28;20056;-73
2022/06/01 01:36:01;;;;;;;9.93;4.60;;;8.50;93.60;;;;;;5091350;28;20068;-73
2022/06/01 01:38:50;;;;;;;6.43;4.68;;;8.50;93.80;;;;;;5091780;28;20355;-73
2022/06/01 01:41:28;;;;;;;5.82;4.30;;;8.50;93.80;;;;;;5090239;28;20548;-73
2022/06/01 01:43:57;;;;;;;6.22;4.40;;;8.50;93.50;;;;;;5085232;28;20051;-73
2022/06/01 01:46:24;;;;;;;6.75;4.28;;;8.50;93.50;;;;;;5089732;28;20047;-73
2022/06/01 01:48:50;;;;;;;7.20;4.40;;;8.50;93.20;;;;;;5092166;28;20036;-73
2022/06/01 01:51:20;;;;;;;5.72;4.60;;;8.50;93.30;;;;;;5090497;28;20039;-73
2022/06/01 01:53:45;;;;;;;6.03;4.50;;;8.60;93.30;;;;;;5080526;28;20044;-73
2022/06/01 01:56:38;;;;;;;6.38;4.20;;;8.60;93.40;;;;;;5071182;28;20523;-73
2022/06/01 01:59:21;;;;;;;8.23;4.15;;;8.70;93.50;;;;;;5071046;28;20044;-74
2022/06/01 02:01:54;;;;;;;6.53;4.70;;;8.60;93.50;;;;;;5067958;28;20039;-73
2022/06/01 02:07:41;;;;;;;7.40;4.55;;;8.70;93.70;;;;;;5069058;28;20040;-73
2022/06/01 02:12:51;;;;;;;6.97;4.30;;;8.70;93.60;;;;;;5071841;28;20491;-73
2022/06/01 02:15:26;;;;;;;7.07;4.47;;;8.70;93.60;;;;;;5069912;28;20035;-73
2022/06/01 02:17:57;;;;;;;6.53;4.93;;;8.70;93.60;;;;;;5072345;28;20439;-73
2022/06/01 02:20:32;;;;;;;6.28;4.47;;;8.70;93.60;;;;;;5070552;28;20499;-73
2022/06/01 02:22:59;;;;;;;6.38;4.55;;;8.70;93.50;;;;;;5071800;28;20020;-73
2022/06/01 02:25:26;;;;;;;6.32;4.75;;;8.70;93.60;;;;;;5069977;28;20060;-73
2022/06/01 02:27:54;;;;;;;7.90;4.50;;;8.60;93.60;;;;;;5068175;28;20367;-73
2022/06/01 02:30:33;;;;;;;9.20;5.05;;;8.60;93.60;;;;;;5071761;28;20021;-73
2022/06/01 02:33:01;;;;;;;7.35;4.45;;;8.60;93.50;;;;;;5052659;28;20028;-73
2022/06/01 02:35:30;;;;;;;8.45;4.30;;;8.60;93.50;;;;;;5070915;28;20036;-73
2022/06/01 02:37:57;;;;;;;5.18;4.28;;;8.50;93.50;;;;;;5070467;28;20092;-73
2022/06/01 02:40:24;;;;;;;7.20;4.53;;;8.60;93.50;;;;;;5070241;28;20036;-73
2022/06/01 02:42:52;;;;;;;5.15;3.72;;;8.60;93.50;;;;;;5068971;28;20068;-73
2022/06/01 02:45:21;;;;;;;7.50;4.05;;;8.60;93.50;;;;;;5067474;28;20036;-73
2022/06/01 02:47:50;;;;;;;5.85;3.85;;;8.60;93.30;;;;;;5070308;28;20032;-73
2022/06/01 02:50:20;;;;;;;5.35;4.10;;;8.60;93.30;;;;;;5068039;28;20040;-73
2022/06/01 02:52:45;;;;;;;6.15;4.32;;;8.70;93.40;;;;;;5071526;28;20436;-73
2022/06/01 02:55:12;;;;;;;6.78;3.65;;;8.70;93.30;;;;;;5089866;28;20119;-73
2022/06/01 02:57:41;;;;;;;7.88;4.25;;;8.70;93.30;;;;;;5086220;28;20355;-73
2022/06/01 03:00:10;;;;;;;7.97;4.20;;;8.80;93.30;;;;;;5087838;28;20115;-73
2022/06/01 03:02:40;;;;;;;6.28;3.60;;;8.80;93.20;;;;;;5089030;28;20055;-73
2022/06/01 03:05:06;;;;;;;5.30;3.88;;;8.80;93.00;;;;;;5089948;28;20043;-73
2022/06/01 03:07:32;;;;;;;5.78;3.42;;;8.90;92.90;;;;;;5089907;28;20032;-73
2022/06/01 03:09:57;;;;;;;5.82;3.83;;;8.90;92.90;;;;;;5090569;28;20468;-73
2022/06/01 03:12:23;;;;;;;5.40;4.18;;;8.90;92.80;;;;;;5087392;28;20067;-73
2022/06/01 03:14:48;;;;;;;5.80;3.72;;;9.00;92.80;;;;;;5084198;28;20024;-73
2022/06/01 03:17:14;;;;;;;4.93;3.33;;;9.00;92.60;;;;;;5089904;28;20424;-73
2022/06/01 03:19:39;;;;;;;6.43;3.70;;;9.00;92.50;;;;;;5089680;28;20539;-73
2022/06/01 03:22:05;;;;;;;4.60;3.38;;;9.00;92.20;;;;;;5090268;28;20420;-73
2022/06/01 03:24:30;;;;;;;8.05;3.60;;;9.10;92.20;;;;;;5090021;28;20075;-73
2022/06/01 03:26:56;;;;;;;4.82;3.15;;;9.10;92.20;;;;;;5083053;28;20493;-73
2022/06/01 03:29:24;;;;;;;5.10;3.33;;;9.10;92.10;;;;;;5089975;28;20035;-73
2022/06/01 03:31:50;;;;;;;5.15;3.40;;;9.10;92.00;;;;;;5088646;28;20036;-73
2022/06/01 03:34:17;;;;;;;3.85;2.92;;;9.10;91.90;;;;;;5088731;28;20039;-73
2022/06/01 03:36:42;;;;;;;4.32;3.08;;;9.10;91.80;;;;;;5090275;28;20039;-74
2022/06/01 03:39:08;;;;;;;4.95;2.97;;;9.10;91.70;;;;;;5086879;28;20028;-73
2022/06/01 03:41:33;;;;;;;5.05;3.20;;;9.30;91.70;;;;;;5088510;28;20521;-73
2022/06/01 03:46:43;;;;;;;6.63;3.28;;;9.30;91.70;;;;;;5089992;28;20521;-73
2022/06/01 03:49:08;;;;;;;7.38;3.50;;;9.30;92.10;;;;;;5090124;28;20115;-74
2022/06/01 03:51:34;;;;;;;5.43;3.40;;;9.40;92.20;;;;;;5084832;28;20123;-74
2022/06/01 03:54:01;;;;;;;4.20;2.88;;;9.40;92.30;;;;;;5087721;28;20051;-73
2022/06/01 03:56:26;;;;;;;6.82;3.40;;;9.40;92.10;;;;;;5088843;28;20475;-74
2022/06/01 03:58:52;;;;;;;5.88;3.20;;;9.40;92.20;;;;;;5089988;28;20042;-74
2022/06/01 04:01:18;;;;;;;6.70;3.22;;;9.50;92.20;;;;;;5088414;28;20035;-74
2022/06/01 04:03:45;;;;;;;4.70;2.95;;;9.50;92.60;;;;;;5088228;28;20085;-74
2022/06/01 04:06:11;;;;;;;6.45;3.35;;;9.40;92.80;;;;;;5086172;28;20459;-74
2022/06/01 04:08:36;;;;;;;5.50;3.42;;;9.50;93.00;;;;;;5089165;28;20268;-74
2022/06/01 04:11:02;;;;;;;5.55;3.70;;;9.50;93.20;;;;;;5087793;28;20036;-74
2022/06/01 04:13:28;;;;;;;6.38;3.70;;;9.40;93.30;;;;;;5090308;28;20036;-74
2022/06/01 04:15:55;;;;;;;5.13;3.78;;;9.40;93.40;;;;;;5087372;28;20432;-74
2022/06/01 04:18:21;;;;;;;5.40;4.05;;;9.40;93.60;;;;;;5089291;28;20055;-72
2022/06/01 04:20:49;;;;;;;5.13;4.03;;;9.20;93.80;;;;;;5087950;28;20032;-71
2022/06/01 04:23:15;;;;;;;6.85;4.38;;;9.20;94.10;;;;;;5089440;28;20583;-71
2022/06/01 04:25:40;;;;;;;11.38;4.53;;;9.00;94.40;;;;;;5082513;28;20102;-71
2022/06/01 04:28:06;;;;;;;6.30;4.57;;;9.00;94.60;;;;;;5090453;28;20039;-72
2022/06/01 04:30:31;;;;;;;7.10;5.13;;;9.00;94.80;;;;;;5092916;28;20097;-72
2022/06/01 04:32:57;;;;;;;8.27;5.78;;;9.00;95.10;;;;;;5092566;28;20032;-72
2022/06/01 04:35:25;;;;;;;9.48;6.32;;;9.00;95.20;;;;;;5086251;28;20116;-73
2022/06/01 04:37:51;;;;;;;9.10;6.70;;;9.10;95.40;;;;;;5088352;28;20374;-73
2022/06/01 04:40:19;;;;;;;13.30;7.40;;;9.00;95.50;;;;;;5090176;28;20044;-73
2022/06/01 04:42:44;;;;;;;14.95;7.90;;;9.00;95.80;;;;;;5091707;28;20274;-74
2022/06/01 04:45:12;;;;;;;10.70;8.23;;;9.00;96.00;;;;;;5088691;28;20059;-74
2022/06/01 04:47:38;;;;;;;15.13;9.93;;;9.00;96.40;;;;;;5090149;28;20032;-74
2022/06/01 04:50:06;;;;;;;13.27;9.68;;;9.00;96.60;;;;;;5083437;28;20164;-74
2022/06/01 04:52:31;;;;;;;13.52;10.25;;;9.00;96.90;;;;;;5089442;28;20036;-74
2022/06/01 04:54:57;;;;;;;15.38;10.13;;;9.00;97.20;;;;;;5089907;28;20395;-74
2022/06/01 04:57:22;;;;;;;13.95;10.40;;;9.00;97.40;;;;;;5091959;28;20028;-74
2022/06/01 04:59:48;;;;;;;13.52;10.57;;;9.00;97.50;;;;;;5092333;28;20438;-73
2022/06/01 05:02:14;;;;;;;13.50;10.65;;;9.00;97.60;;;;;;5088290;28;20024;-72
2022/06/01 05:04:40;;;;;;;19.70;11.00;;;9.00;97.60;;;;;;5086965;28;20371;-73
2022/06/01 05:07:06;;;;;;;17.42;12.18;;;9.00;97.60;;;;;;5091154;28;20024;-73
2022/06/01 05:09:31;;;;;;;17.23;11.63;;;9.00;97.70;;;;;;5089223;28;20040;-74
2022/06/01 05:11:57;;;;;;;15.57;12.13;;;9.00;97.80;;;;;;5089074;28;20422;-74
2022/06/01 05:14:23;;;;;;;18.83;13.27;;;9.00;97.80;;;;;;5085737;28;20093;-73
2022/06/01 05:16:49;;;;;;;15.93;11.65;;;9.00;97.80;;;;;;5082331;28;20390;-73
2022/06/01 05:19:14;;;;;;;16.23;12.05;;;9.00;97.80;;;;;;5088658;28;20024;-73
2022/06/01 05:21:40;;;;;;;17.92;12.77;;;9.00;97.90;;;;;;5092239;28;20031;-73
2022/06/01 05:24:06;;;;;;;15.20;12.18;;;9.00;97.90;;;;;;5083214;28;20110;-73
2022/06/01 05:26:32;;;;;;;17.33;11.27;;;9.00;97.90;;;;;;5085524;28;20035;-73
2022/06/01 05:28:57;;;;;;;17.63;13.23;;;9.00;97.90;;;;;;5092112;28;20042;-73
2022/06/01 05:31:23;;;;;;;19.27;14.00;;;9.00;98.00;;;;;;5091083;28;20387;-73
2022/06/01 05:33:49;;;;;;;15.88;12.95;;;9.00;98.00;;;;;;5088247;28;20043;-73
2022/06/01 05:36:16;;;;;;;18.70;11.98;;;9.00;98.00;;;;;;5089111;28;20033;-74
2022/06/01 05:38:42;;;;;;;17.15;12.18;;;9.00;98.00;;;;;;5089289;28;20078;-74
2022/06/01 05:41:08;;;;;;;15.43;11.55;;;9.00;98.10;;;;;;5086069;28;20055;-74
2022/06/01 05:43:34;;;;;;;15.90;11.68;;;9.00;98.10;;;;;;5087311;28;20035;-73
2022/06/01 05:46:01;;;;;;;18.02;12.18;;;9.00;98.20;;;;;;5089092;28;20039;-73
2022/06/01 05:48:26;;;;;;;16.55;11.65;;;9.00;98.30;;;;;;5089278;28;20032;-74
2022/06/01 05:50:52;;;;;;;16.02;11.00;;;9.00;98.20;;;;;;5087526;28;20024;-74
2022/06/01 05:53:17;;;;;;;15.93;10.60;;;9.10;98.20;;;;;;5086002;28;20575;-74
2022/06/01 05:55:43;;;;;;;17.30;11.77;;;9.10;98.30;;;;;;5085867;28;20111;-72
2022/06/01 05:58:21;;;;;;;17.83;10.82;;;9.10;98.20;;;;;;5089259;28;20027;-72
2022/06/01 06:00:49;;;;;;;14.27;9.77;;;9.20;98.30;;;;;;5087082;28;20020;-74
2022/06/01 06:03:16;;;;;;;20.42;10.45;;;9.20;98.30;;;;;;5089012;28;20024;-73
2022/06/01 06:08:26;;;;;;;13.95;7.80;;;9.30;98.30;;;;;;5089025;28;20031;-73
2022/06/01 06:10:52;;;;;;;12.15;8.10;;;9.30;98.30;;;;;;5086179;28;20051;-74
2022/06/01 06:13:18;;;;;;;12.07;8.23;;;9.30;98.40;;;;;;5090633;28;20150;-73
2022/06/01 06:15:43;;;;;;;9.95;7.28;;;9.30;98.30;;;;;;5089187;28;20035;-74
2022/06/01 06:18:13;;;;;;;10.35;6.68;;;9.40;98.40;;;;;;5090040;28;20098;-74
2022/06/01 06:20:41;;;;;;;12.30;7.10;;;9.50;98.40;;;;;;5088015;28;20037;-74
2022/06/01 06:23:07;;;;;;;9.40;5.90;;;9.60;98.40;;;;;;5089423;28;20060;-74
2022/06/01 06:25:33;;;;;;;8.77;6.53;;;9.40;98.10;;;;;;5077300;28;20032;-74
2022/06/01 06:27:58;;;;;;;10.35;7.53;;;9.50;98.20;;;;;;5089871;28;20031;-74
2022/06/01 06:30:24;;;;;;;11.20;7.32;;;9.50;97.90;;;;;;5088644;28;20162;-73
2022/06/01 06:32:49;;;;;;;10.68;8.00;;;9.60;97.90;;;;;;5091466;28;20050;-74
2022/06/01 06:35:15;;;;;;;11.30;7.82;;;9.70;98.00;;;;;;5086812;28;20036;-73
2022/06/01 06:37:41;;;;;;;10.70;7.63;;;9.80;97.90;;;;;;5091346;28;20043;-73
2022/06/01 06:40:08;;;;;;;11.02;7.85;;;9.90;97.80;;;;;;5085915;28;20059;-74
2022/06/01 06:42:33;;;;;;;9.73;7.20;;;9.90;97.70;;;;;;5084222;28;20021;-74
2022/06/01 06:44:59;;;;;;;10.18;7.93;;;9.90;97.50;;;;;;5089870;28;20485;-74
2022/06/01 06:47:24;;;;;;;10.95;7.97;;;10.00;97.30;;;;;;5088852;28;20036;-74
2022/06/01 06:49:50;;;;;;;8.82;7.03;;;10.10;97.30;;;;;;5080630;28;20028;-75
2022/06/01 06:52:15;;;;;;;10.75;7.50;;;10.20;97.20;;;;;;5085644;28;20043;-75
2022/06/01 06:54:41;;;;;;;9.05;7.13;;;10.40;97.30;;;;;;5088119;28;20487;-75
2022/06/01 06:57:07;;;;;;;9.10;6.05;;;10.50;97.10;;;;;;5085002;28;20036;-74
2022/06/01 06:59:33;;;;;;;8.35;6.03;;;10.40;96.50;;;;;;5078515;28;20044;-74
2022/06/01 07:01:58;;;;;;;9.18;5.20;;;10.40;96.40;;;;;;5082713;28;20563;-74
2022/06/01 07:04:24;;;;;;;7.05;5.88;;;10.60;96.30;;;;;;5089927;28;20115;-73
2022/06/01 07:06:49;;;;;;;7.53;5.40;;;10.80;96.30;;;;;;5084265;28;20391;-73
2022/06/01 07:09:15;;;;;;;7.32;4.90;;;10.80;95.90;;;;;;5087599;28;21657;-72
2022/06/01 07:11:40;;;;;;;5.72;4.25;;;10.80;95.60;;;;;;5079607;28;20612;-73
2022/06/01 07:14:06;;;;;;;5.15;3.90;;;10.80;94.70;;;;;;5089145;28;20395;-74
2022/06/01 07:16:33;;;;;;;5.93;4.43;;;10.90;94.30;;;;;;5090586;28;20075;-73
2022/06/01 07:19:02;;;;;;;6.15;4.47;;;11.20;94.60;;;;;;5089208;28;20478;-73
2022/06/01 07:21:28;;;;;;;7.43;5.38;;;11.50;94.70;;;;;;5105495;28;20031;-74
2022/06/01 07:23:54;;;;;;;6.22;4.80;;;11.60;94.50;;;;;;5083692;28;20031;-74
2022/06/01 07:26:25;;;;;;;6.45;4.95;;;11.80;94.70;;;;;;5090216;28;20919;-73
2022/06/01 07:28:51;;;;;;;6.32;4.40;;;11.80;94.70;;;;;;5088772;28;20043;-74
2022/06/01 07:31:18;;;;;;;5.55;4.05;;;11.90;94.50;;;;;;5090877;28;20398;-74
2022/06/01 07:33:44;;;;;;;5.30;3.83;;;12.00;94.20;;;;;;5088972;28;20028;-74
2022/06/01 07:36:12;;;;;;;6.25;3.80;;;11.80;93.00;;;;;;5090964;28;20024;-74
2022/06/01 07:44:19;;;;;;;5.30;4.00;;;12.00;92.60;;;;;;5088904;28;20042;-74
2022/06/01 07:46:45;;;;;;;4.97;3.38;;;12.20;92.80;;;;;;5090790;28;20477;-74
2022/06/01 07:49:11;;;;;;;5.75;3.33;;;12.00;91.40;;;;;;5084474;28;20036;-73
2022/06/01 07:51:38;;;;;;;3.78;2.72;;;11.80;90.30;;;;;;5087427;28;20036;-74
2022/06/01 07:54:05;;;;;;;6.75;3.30;;;12.00;90.80;;;;;;5090999;28;20106;-72
2022/06/01 07:56:31;;;;;;;5.68;3.35;;;12.10;91.60;;;;;;5091499;28;20107;-72
2022/06/01 07:58:57;;;;;;;5.00;3.30;;;12.10;91.30;;;;;;5090004;28;20379;-74
2022/06/01 08:01:25;;;;;;;6.60;3.80;;;12.10;90.90;;;;;;5090391;28;20031;-74
2022/06/01 08:03:56;;;;;;;6.22;4.20;;;12.40;92.00;;;;;;5087061;28;20119;-74
2022/06/01 08:06:22;;;;;;;4.82;3.47;;;12.70;92.20;;;;;;5090149;28;20372;-74
2022/06/01 08:08:48;;;;;;;4.63;2.97;;;12.60;90.50;;;;;;5090096;28;20032;-75
2022/06/01 08:11:14;;;;;;;5.47;2.90;;;12.90;90.20;;;;;;5088718;28;20040;-74
2022/06/01 08:13:39;;;;;;;5.53;2.85;;;13.10;90.20;;;;;;5090379;28;20057;-74
2022/06/01 08:16:05;;;;;;;3.92;2.45;;;12.90;88.50;;;;;;5088176;28;20044;-75
2022/06/01 08:18:30;;;;;;;4.20;2.70;;;12.80;87.60;;;;;;5085285;28;20052;-75
2022/06/01 08:20:56;;;;;;;3.08;2.13;;;12.90;88.10;;;;;;5089324;28;20089;-75
2022/06/01 08:23:25;;;;;;;4.30;2.42;;;12.90;87.30;;;;;;5083352;28;20058;-74
2022/06/01 08:25:50;;;;;;;4.80;2.85;;;12.90;87.60;;;;;;5086565;28;20055;-75
2022/06/01 08:28:16;;;;;;;3.42;2.60;;;13.00;87.40;;;;;;5082404;28;20032;-75
2022/06/01 08:30:42;;;;;;;3.28;2.10;;;13.00;87.40;;;;;;5088799;28;20620;-74
2022/06/01 08:33:08;;;;;;;4.95;2.70;;;13.00;86.90;;;;;;5089248;28;20032;-75
2022/06/01 08:35:37;;;;;;;4.50;3.03;;;13.00;87.00;;;;;;5089567;28;20024;-75
2022/06/01 08:38:03;;;;;;;3.75;2.75;;;13.60;89.60;;;;;;5089950;28;20386;-75
2022/06/01 08:40:39;;;;;;;5.05;2.70;;;13.60;88.40;;;;;;5084206;28;20056;-75
2022/06/01 08:43:10;;;;;;;4.05;2.88;;;13.70;87.20;;;;;;5085907;28;20391;-76
2022/06/01 08:45:36;;;;;;;4.93;3.50;;;13.90;87.80;;;;;;5084500;28;20505;-75
2022/06/01 08:48:03;;;;;;;4.68;3.15;;;14.20;88.90;;;;;;5084057;28;20032;-75
2022/06/01 08:50:35;;;;;;;3.83;2.60;;;14.80;89.40;;;;;;5081654;28;20059;-76
2022/06/01 08:53:04;;;;;;;3.20;2.25;;;14.70;85.40;;;;;;5084843;28;20044;-76
2022/06/01 08:55:51;;;;;;;3.05;2.10;;;14.70;83.40;;;;;;5087310;28;20024;-76
2022/06/01 08:58:40;;;;;;;3.78;2.33;;;14.60;81.20;;;;;;5084252;28;20489;-75
2022/06/01 09:01:16;;;;;;;3.97;2.35;;;14.60;79.60;;;;;;5090001;28;20020;-74
2022/06/01 09:04:00;;;;;;;4.75;3.00;;;14.80;82.70;;;;;;5087327;28;20044;-76
2022/06/01 09:06:34;;;;;;;6.45;3.08;;;15.30;84.70;;;;;;5088714;28;20032;-75
2022/06/01 09:09:10;;;;;;;3.85;2.70;;;15.30;82.00;;;;;;5079722;28;20032;-76
2022/06/01 09:11:37;;;;;;;3.63;2.40;;;15.60;80.50;;;;;;5082210;28;20081;-76
2022/06/01 09:14:15;;;;;;;3.90;2.50;;;15.80;80.30;;;;;;5089444;28;20032;-76
2022/06/01 09:16:47;;;;;;;4.63;2.03;;;15.60;76.40;;;;;;5093627;28;20467;-76
2022/06/01 09:19:20;;;;;;;2.78;1.80;;;16.10;78.10;;;;;;5089440;28;20044;-76
2022/06/01 09:24:41;;;;;;;3.08;1.80;;;16.70;78.90;;;;;;5088957;28;20023;-76
2022/06/01 09:27:10;;;;;;;3.45;2.30;;;16.30;74.60;;;;;;5092009;28;20115;-76
2022/06/01 09:29:51;;;;;;;3.67;2.70;;;16.10;74.30;;;;;;5089863;28;20044;-76
2022/06/01 09:32:29;;;;;;;6.80;2.60;;;15.90;74.00;;;;;;5092667;28;20128;-76
2022/06/01 09:35:00;;;;;;;4.93;2.65;;;16.00;73.40;;;;;;5089833;28;20047;-76
2022/06/01 09:37:28;;;;;;;4.80;2.92;;;16.10;75.00;;;;;;5089695;28;20028;-76
2022/06/01 09:39:57;;;;;;;4.78;2.85;;;16.10;75.60;;;;;;5093826;28;20036;-76
2022/06/01 09:42:25;;;;;;;6.15;3.30;;;16.40;77.10;;;;;;5089947;28;20040;-76
2022/06/01 09:44:53;;;;;;;6.25;3.17;;;16.30;76.00;;;;;;5093787;28;20097;-76
2022/06/01 09:47:39;;;;;;;4.60;3.20;;;16.30;75.70;;;;;;5091985;28;20028;-76
2022/06/01 09:50:30;;;;;;;4.25;3.00;;;15.50;74.90;;;;;;5089498;28;20382;-76
2022/06/01 09:53:10;;;;;;;6.45;2.85;;;15.10;76.50;;;;;;5082988;28;20043;-76
2022/06/01 09:55:53;;;;;;;7.00;3.00;;;15.00;76.20;;;;;;5092907;28;20024;-76
2022/06/01 10:07:07;;;;;;;4.13;2.42;;;14.30;79.70;;;;;;5092051;28;20156;-76
2022/06/01 10:09:34;;;;;;;6.72;2.53;;;14.30;78.80;;;;;;5092859;28;20032;-76
2022/06/01 10:12:36;;;;;;;3.13;2.10;;;14.20;77.60;;;;;;5092862;28;20032;-76
2022/06/01 10:15:04;;;;;;;2.80;1.80;;;14.10;77.70;;;;;;5083060;28;20040;-76
2022/06/01 10:17:35;;;;;;;4.63;2.22;;;14.10;76.10;;;;;;5091362;28;20060;-76
2022/06/01 10:20:26;;;;;;;3.80;2.13;;;14.10;77.00;;;;;;5091181;28;20028;-76
2022/06/01 10:23:15;;;;;;;2.05;1.83;;;14.00;77.00;;;;;;5092443;28;20032;-76
2022/06/01 10:25:49;;;;;;;3.88;2.63;;;14.00;77.20;;;;;;5091975;28;20109;-76
2022/06/01 10:28:25;;;;;;;2.95;1.90;;;13.80;76.30;;;;;;5093248;28;20025;-76
2022/06/01 10:30:56;;;;;;;4.18;2.35;;;13.80;74.90;;;;;;5092231;28;20060;-76
2022/06/01 10:33:36;;;;;;;4.97;2.13;;;14.00;75.90;;;;;;5087510;28;20049;-77
2022/06/01 10:36:13;;;;;;;2.92;2.13;;;14.10;76.00;;;;;;5081849;28;20028;-77
2022/06/01 10:38:46;;;;;;;3.38;2.20;;;13.90;76.60;;;;;;5082981;28;20513;-77
2022/06/01 10:41:24;;;;;;;4.38;2.17;;;14.20;76.00;;;;;;5092320;28;20028;-77
2022/06/01 10:44:09;;;;;;;2.50;2.10;;;14.30;75.50;;;;;;5092980;28;20039;-75
2022/06/01 10:46:47;;;;;;;4.90;2.95;;;14.70;75.00;;;;;;5082808;28;20143;-74
2022/06/01 10:49:43;;;;;;;4.50;2.90;;;14.80;74.30;;;;;;5090755;28;20032;-76
2022/06/01 10:52:29;;;;;;;4.53;2.80;;;15.20;73.00;;;;;;5089497;28;20487;-76
2022/06/01 10:55:10;;;;;;;4.38;2.78;;;15.30;72.70;;;;;;5090878;28;20074;-77
2022/06/01 10:57:39;;;;;;;;;;;15.50;73.30;;;;;;5093275;28;20478;-76
2022/06/01 11:00:07;;;;;;;4.88;3.00;;;15.60;70.20;;;;;;5091063;28;19951;-76
2022/06/01 11:02:54;;;;;;;4.30;2.95;;;15.90;71.60;;;;;;5092366;28;20427;-76
2022/06/01 11:05:25;;;;;;;4.97;3.25;;;16.00;72.40;;;;;;5089575;28;20036;-76
2022/06/01 11:08:09;;;;;;;5.25;3.42;;;15.60;71.60;;;;;;5092327;28;20020;-76
2022/06/01 11:10:46;;;;;;;5.75;3.67;;;15.30;73.60;;;;;;5091931;28;20032;-76
2022/06/01 11:13:55;;;;;;;5.63;3.60;;;15.10;73.80;;;;;;5093230;28;20391;-76
2022/06/01 11:16:32;;;;;;;4.80;3.33;;;15.20;75.80;;;;;;5091414;28;20040;-76
2022/06/01 11:19:05;;;;;;;5.28;3.25;;;15.10;76.20;;;;;;5090908;28;20062;-76
2022/06/01 11:21:56;;;;;;;4.85;3.28;;;14.90;75.60;;;;;;5093172;28;20032;-76
2022/06/01 11:24:31;;;;;;;5.90;3.90;;;15.00;76.30;;;;;;5082550;28;20494;-76
2022/06/01 11:27:19;;;;;;;6.68;4.43;;;14.90;77.00;;;;;;5091712;28;20039;-76
2022/06/01 11:29:55;;;;;;;6.90;4.72;;;15.00;78.10;;;;;;5084234;28;20048;-76
2022/06/01 11:32:31;;;;;;;7.15;4.57;;;14.80;77.50;;;;;;5091613;28;20028;-76
2022/06/01 11:35:13;;;;;;;8.00;4.28;;;14.60;78.90;;;;;;5090142;28;20028;-76
2022/06/01 11:38:10;;;;;;;6.97;4.60;;;14.50;78.70;;;;;;5086384;28;20107;-75
2022/06/01 11:40:53;;;;;;;8.65;6.20;;;14.20;80.50;;;;;;5086232;28;20044;-76
2022/06/01 11:43:32;;;;;;;9.30;6.22;;;13.70;83.10;;;;;;5091472;28;20020;-76
2022/06/01 11:46:16;;;;;;;6.68;4.97;;;13.40;84.20;;;;;;5091547;28;20470;-76
2022/06/01 11:48:51;;;;;;;7.15;5.18;;;13.10;83.60;;;;;;5088026;28;20067;-76
2022/06/01 11:51:19;;;;;;;7.78;6.63;;;12.90;84.40;;;;;;5084006;28;20085;-76
2022/06/01 11:53:54;;;;;;;8.77;7.25;;;12.90;86.50;;;;;;5090521;28;20375;-76
2022/06/01 11:56:41;;;;;;;11.00;8.43;;;12.70;85.90;;;;;;5089844;28;20437;-77
2022/06/01 11:59:27;;;;;;;12.27;9.52;;;13.20;87.40;;;;;;5084116;28;20097;-76
2022/06/01 12:02:40;;;;;;;14.05;10.98;;;14.20;85.60;;;;;;5085760;28;20033;-76
2022/06/01 12:05:20;;;;;;;14.43;11.02;;;15.10;83.10;;;;;;5089623;28;20613;-76
2022/06/01 12:07:50;;;;;;;14.48;11.13;;;15.90;80.70;;;;;;5090481;28;20081;-76
2022/06/01 12:10:24;;;;;;;12.03;9.80;;;16.60;78.60;;;;;;5089044;28;20446;-76
2022/06/01 12:13:01;;;;;;;9.32;7.55;;;17.20;76.70;;;;;;5084776;28;20028;-77
2022/06/01 12:16:02;;;;;;;11.25;7.45;;;17.60;72.50;;;;;;5088095;28;20035;-77
2022/06/01 12:18:29;;;;;;;7.80;5.70;;;17.90;72.90;;;;;;5087440;28;20485;-77
2022/06/01 12:21:17;;;;;;;8.60;6.38;;;17.70;71.10;;;;;;5087363;28;20382;-74
2022/06/01 12:30:05;;;;;;;;;;;18.80;66.20;;;;;;5086120;28;20111;-74
2022/06/01 12:32:59;;;;;;;6.60;5.28;;;18.80;66.30;;;;;;5090241;28;19908;-74
2022/06/01 12:35:40;;;;;;;8.52;6.05;;;17.90;68.10;;;;;;5083982;28;20040;-74
2022/06/01 12:38:13;;;;;;;8.40;5.20;;;17.60;71.20;;;;;;5080838;28;20103;-74
2022/06/01 12:40:41;;;;;;;5.82;3.78;;;17.10;68.50;;;;;;5090644;28;20055;-74
2022/06/01 12:43:14;;;;;;;7.70;4.25;;;17.90;65.00;;;;;;5087266;28;20035;-74
2022/06/01 12:45:43;;;;;;;6.55;3.80;;;18.70;66.20;;;;;;5087134;28;20387;-74
2022/06/01 12:48:13;;;;;;;4.68;3.22;;;19.30;61.50;;;;;;5088126;28;20074;-74
2022/06/01 12:50:58;;;;;;;7.20;3.95;;;19.80;59.70;;;;;;5078595;28;20068;-74
2022/06/01 12:53:27;;;;;;;5.93;3.95;;;19.60;56.50;;;;;;5091425;28;20059;-74
2022/06/01 12:56:09;;;;;;;5.88;3.67;;;20.00;58.50;;;;;;5090445;28;20051;-74
2022/06/01 12:58:36;;;;;;;5.25;2.83;;;19.80;58.30;;;;;;5094739;28;20024;-74
2022/06/01 13:01:02;;;;;;;4.20;1.90;;;19.50;57.20;;;;;;5094701;28;20032;-74
2022/06/01 13:03:32;;;;;;;2.25;1.30;;;19.50;55.90;;;;;;5094757;28;20032;-74
2022/06/01 13:05:59;;;;;;;2.45;1.30;;;19.60;54.80;;;;;;5093755;28;20059;-74
2022/06/01 13:08:33;;;;;;;1.83;1.10;;;19.80;51.20;;;;;;5094702;28;20124;-75
2022/06/01 13:11:32;;;;;;;2.17;1.20;;;20.10;51.60;;;;;;5092315;28;20032;-73
2022/06/01 13:14:03;;;;;;;3.47;1.48;;;20.20;53.30;;;;;;5081288;28;20506;-73
2022/06/01 13:16:46;;;;;;;2.42;1.50;;;20.70;53.60;;;;;;5093117;28;20429;-74
2022/06/01 13:19:24;;;;;;;1.88;1.48;;;21.10;50.20;;;;;;5093277;28;20059;-73
2022/06/01 13:22:19;;;;;;;2.25;1.80;;;20.60;51.90;;;;;;5094273;28;20058;-73
2022/06/01 13:24:51;;;;;;;2.53;1.48;;;20.50;51.10;;;;;;5090818;28;20032;-74
2022/06/01 13:27:17;;;;;;;3.58;2.00;;;20.80;50.50;;;;;;5093368;28;20054;-74
2022/06/01 13:29:52;;;;;;;3.22;1.70;;;20.80;52.00;;;;;;5092184;28;20044;-74
2022/06/01 13:32:25;;;;;;;2.60;1.70;;;21.20;48.30;;;;;;5090948;28;20506;-73
2022/06/01 13:34:53;;;;;;;4.40;2.30;;;21.00;49.90;;;;;;5088493;28;20032;-73
2022/06/01 13:37:28;;;;;;;3.53;2.40;;;20.10;51.20;;;;;;5079452;28;20036;-74
2022/06/01 13:40:01;;;;;;;3.47;2.45;;;20.00;54.10;;;;;;5089528;28;20028;-72
2022/06/01 13:42:35;;;;;;;4.20;2.20;;;20.10;52.70;;;;;;5091755;28;20036;-71
2022/06/01 13:45:03;;;;;;;4.13;2.65;;;19.70;55.20;;;;;;5092458;28;20016;-71